sensor_id;sensor_type;location;lat;lon;timestamp;temperature;humidity
18733;DHT22;9495;51.210;2.934;2024-01-30T00:02:28;12.50;99.90
18733;DHT22;9495;51.210;2.934;2024-01-30T00:04:57;12.20;99.90
18733;DHT22;9495;51.210;2.934;2024-01-30T00:07:25;12.30;99.90
18733;DHT22;9495;51.210;2.934;2024-01-30T00:09:54;12.30;99.90
18733;DHT22;9495;51.210;2.934;2024-01-30T00:12:23;12.40;99.90
18733;DHT22;9495;51.210;2.934;2024-01-30T00:14:53;12.70;99.90
18733;DHT22;9495;51.210;2.934;2024-01-30T00:17:22;12.80;99.90
18733;DHT22;9495;51.210;2.934;2024-01-30T00:19:52;12.50;99.90
18733;DHT22;9495;51.210;2.934;2024-01-30T00:22:21;12.50;99.90
18733;DHT22;9495;51.210;2.934;2024-01-30T00:24:50;12.60;99.90
18733;DHT22;9495;51.210;2.934;2024-01-30T00:27:18;12.40;99.90
18733;DHT22;9495;51.210;2.934;2024-01-30T00:29:47;12.40;99.90
18733;DHT22;9495;51.210;2.934;2024-01-30T00:32:17;12.70;99.90
18733;DHT22;9495;51.210;2.934;2024-01-30T00:34:46;13.00;99.90
18733;DHT22;9495;51.210;2.934;2024-01-30T00:37:15;12.90;99.90
18733;DHT22;9495;51.210;2.934;2024-01-30T00:39:44;12.60;99.90
18733;DHT22;9495;51.210;2.934;2024-01-30T00:42:12;12.80;99.90
18733;DHT22;9495;51.210;2.934;2024-01-30T00:44:41;12.90;99.90
18733;DHT22;9495;51.210;2.934;2024-01-30T00:47:10;13.00;99.90
18733;DHT22;9495;51.210;2.934;2024-01-30T00:49:40;13.20;99.90
18733;DHT22;9495;51.210;2.934;2024-01-30T00:52:10;12.90;99.90
18733;DHT22;9495;51.210;2.934;2024-01-30T00:54:39;13.00;99.90
18733;DHT22;9495;51.210;2.934;2024-01-30T00:57:08;13.10;99.90
18733;DHT22;9495;51.210;2.934;2024-01-30T00:59:36;13.10;99.90
18733;DHT22;9495;51.210;2.934;2024-01-30T01:02:05;12.90;99.90
18733;DHT22;9495;51.210;2.934;2024-01-30T01:04:34;12.90;99.90
18733;DHT22;9495;51.210;2.934;2024-01-30T01:07:04;13.00;99.90
18733;DHT22;9495;51.210;2.934;2024-01-30T01:09:33;12.90;99.90
18733;DHT22;9495;51.210;2.934;2024-01-30T01:12:02;12.70;99.90
18733;DHT22;9495;51.210;2.934;2024-01-30T01:14:31;12.80;99.90
18733;DHT22;9495;51.210;2.934;2024-01-30T01:16:59;12.80;99.90
18733;DHT22;9495;51.210;2.934;2024-01-30T01:19:28;13.00;99.90
18733;DHT22;9495;51.210;2.934;2024-01-30T01:21:56;12.60;99.90
18733;DHT22;9495;51.210;2.934;2024-01-30T01:24:27;12.80;99.90
18733;DHT22;9495;51.210;2.934;2024-01-30T01:26:55;12.70;99.90
18733;DHT22;9495;51.210;2.934;2024-01-30T01:29:24;12.70;99.90
18733;DHT22;9495;51.210;2.934;2024-01-30T01:31:56;12.90;99.90
18733;DHT22;9495;51.210;2.934;2024-01-30T01:34:25;12.90;99.90
18733;DHT22;9495;51.210;2.934;2024-01-30T01:36:57;12.70;99.90
18733;DHT22;9495;51.210;2.934;2024-01-30T01:39:27;13.00;99.90
18733;DHT22;9495;51.210;2.934;2024-01-30T01:41:56;13.10;99.90
18733;DHT22;9495;51.210;2.934;2024-01-30T01:44:24;12.80;99.90
18733;DHT22;9495;51.210;2.934;2024-01-30T01:46:54;13.10;99.90
18733;DHT22;9495;51.210;2.934;2024-01-30T01:49:24;12.70;99.90
18733;DHT22;9495;51.210;2.934;2024-01-30T01:51:55;12.60;99.90
18733;DHT22;9495;51.210;2.934;2024-01-30T01:54:27;12.70;99.90
18733;DHT22;9495;51.210;2.934;2024-01-30T01:56:56;12.60;99.90
18733;DHT22;9495;51.210;2.934;2024-01-30T01:59:25;12.60;99.90
18733;DHT22;9495;51.210;2.934;2024-01-30T02:01:56;12.90;99.90
18733;DHT22;9495;51.210;2.934;2024-01-30T02:04:25;12.80;99.90
18733;DHT22;9495;51.210;2.934;2024-01-30T02:06:53;12.50;99.90
18733;DHT22;9495;51.210;2.934;2024-01-30T02:09:22;12.50;99.90
18733;DHT22;9495;51.210;2.934;2024-01-30T02:11:52;12.30;99.90
18733;DHT22;9495;51.210;2.934;2024-01-30T02:14:21;12.60;99.90
18733;DHT22;9495;51.210;2.934;2024-01-30T02:16:49;12.60;99.90
18733;DHT22;9495;51.210;2.934;2024-01-30T02:19:18;12.40;99.90
18733;DHT22;9495;51.210;2.934;2024-01-30T02:21:48;12.30;99.90
18733;DHT22;9495;51.210;2.934;2024-01-30T02:24:18;12.00;99.90
18733;DHT22;9495;51.210;2.934;2024-01-30T02:26:46;12.10;99.90
18733;DHT22;9495;51.210;2.934;2024-01-30T02:29:15;11.90;99.90
18733;DHT22;9495;51.210;2.934;2024-01-30T02:31:43;12.10;99.90
18733;DHT22;9495;51.210;2.934;2024-01-30T02:34:13;12.10;99.90
18733;DHT22;9495;51.210;2.934;2024-01-30T02:36:42;12.20;99.90
18733;DHT22;9495;51.210;2.934;2024-01-30T02:39:12;12.40;99.90
18733;DHT22;9495;51.210;2.934;2024-01-30T02:41:40;12.50;99.90
18733;DHT22;9495;51.210;2.934;2024-01-30T02:44:09;12.40;99.90
18733;DHT22;9495;51.210;2.934;2024-01-30T02:46:37;12.50;99.90
18733;DHT22;9495;51.210;2.934;2024-01-30T02:49:06;12.70;99.90
18733;DHT22;9495;51.210;2.934;2024-01-30T02:51:34;13.00;99.90
18733;DHT22;9495;51.210;2.934;2024-01-30T02:54:03;12.80;99.90
18733;DHT22;9495;51.210;2.934;2024-01-30T02:56:33;13.10;99.90
18733;DHT22;9495;51.210;2.934;2024-01-30T02:59:01;12.70;99.90
18733;DHT22;9495;51.210;2.934;2024-01-30T03:01:30;12.50;99.90
18733;DHT22;9495;51.210;2.934;2024-01-30T03:03:59;12.60;99.90
18733;DHT22;9495;51.210;2.934;2024-01-30T03:06:28;12.50;99.90
18733;DHT22;9495;51.210;2.934;2024-01-30T03:08:56;12.40;99.90
18733;DHT22;9495;51.210;2.934;2024-01-30T03:11:25;12.20;99.90
18733;DHT22;9495;51.210;2.934;2024-01-30T03:13:54;11.90;99.90
18733;DHT22;9495;51.210;2.934;2024-01-30T03:16:23;12.10;99.90
18733;DHT22;9495;51.210;2.934;2024-01-30T03:18:52;12.20;99.90
18733;DHT22;9495;51.210;2.934;2024-01-30T03:21:21;12.10;99.90
18733;DHT22;9495;51.210;2.934;2024-01-30T03:23:49;12.00;99.90
18733;DHT22;9495;51.210;2.934;2024-01-30T03:26:18;12.20;99.90
18733;DHT22;9495;51.210;2.934;2024-01-30T03:28:46;12.50;99.90
18733;DHT22;9495;51.210;2.934;2024-01-30T03:31:16;12.50;99.90
18733;DHT22;9495;51.210;2.934;2024-01-30T03:33:45;12.50;99.90
18733;DHT22;9495;51.210;2.934;2024-01-30T03:36:15;12.80;99.90
18733;DHT22;9495;51.210;2.934;2024-01-30T03:38:44;13.00;99.90
18733;DHT22;9495;51.210;2.934;2024-01-30T03:41:13;12.70;99.90
18733;DHT22;9495;51.210;2.934;2024-01-30T03:43:42;12.70;99.90
18733;DHT22;9495;51.210;2.934;2024-01-30T03:46:12;12.50;99.90
18733;DHT22;9495;51.210;2.934;2024-01-30T03:48:42;12.80;99.90
18733;DHT22;9495;51.210;2.934;2024-01-30T03:51:10;12.90;99.90
18733;DHT22;9495;51.210;2.934;2024-01-30T03:53:43;13.00;99.90
18733;DHT22;9495;51.210;2.934;2024-01-30T03:56:12;13.10;99.90
18733;DHT22;9495;51.210;2.934;2024-01-30T03:58:41;12.70;99.90
18733;DHT22;9495;51.210;2.934;2024-01-30T04:01:13;12.70;99.90
18733;DHT22;9495;51.210;2.934;2024-01-30T04:03:43;13.10;99.90
18733;DHT22;9495;51.210;2.934;2024-01-30T04:06:12;12.90;99.90
18733;DHT22;9495;51.210;2.934;2024-01-30T04:08:41;12.70;99.90
18733;DHT22;9495;51.210;2.934;2024-01-30T04:11:09;12.70;99.90
18733;DHT22;9495;51.210;2.934;2024-01-30T04:13:38;12.70;99.90
18733;DHT22;9495;51.210;2.934;2024-01-30T04:16:07;12.60;99.90
18733;DHT22;9495;51.210;2.934;2024-01-30T04:18:35;12.50;99.90
18733;DHT22;9495;51.210;2.934;2024-01-30T04:21:05;12.50;99.90
18733;DHT22;9495;51.210;2.934;2024-01-30T04:23:34;13.00;99.90
18733;DHT22;9495;51.210;2.934;2024-01-30T04:26:02;13.20;99.90
18733;DHT22;9495;51.210;2.934;2024-01-30T04:28:31;12.80;99.90
18733;DHT22;9495;51.210;2.934;2024-01-30T04:31:00;12.90;99.90
18733;DHT22;9495;51.210;2.934;2024-01-30T04:33:28;13.00;99.90
18733;DHT22;9495;51.210;2.934;2024-01-30T04:35:57;12.90;99.90
18733;DHT22;9495;51.210;2.934;2024-01-30T04:38:27;13.00;99.90
18733;DHT22;9495;51.210;2.934;2024-01-30T04:40:55;13.10;99.90
18733;DHT22;9495;51.210;2.934;2024-01-30T04:43:24;13.30;99.90
18733;DHT22;9495;51.210;2.934;2024-01-30T04:45:53;13.40;99.90
18733;DHT22;9495;51.210;2.934;2024-01-30T04:48:22;13.70;99.90
18733;DHT22;9495;51.210;2.934;2024-01-30T04:50:50;13.60;99.90
18733;DHT22;9495;51.210;2.934;2024-01-30T04:53:19;13.60;99.90
18733;DHT22;9495;51.210;2.934;2024-01-30T04:55:48;13.50;99.90
18733;DHT22;9495;51.210;2.934;2024-01-30T04:58:17;13.70;99.90
18733;DHT22;9495;51.210;2.934;2024-01-30T05:00:45;13.60;99.90
18733;DHT22;9495;51.210;2.934;2024-01-30T05:03:19;13.50;99.90
18733;DHT22;9495;51.210;2.934;2024-01-30T05:05:49;13.60;99.90
18733;DHT22;9495;51.210;2.934;2024-01-30T05:08:18;13.50;99.90
18733;DHT22;9495;51.210;2.934;2024-01-30T05:10:48;13.40;99.90
18733;DHT22;9495;51.210;2.934;2024-01-30T05:13:16;13.50;99.90
18733;DHT22;9495;51.210;2.934;2024-01-30T05:15:45;13.50;99.90
18733;DHT22;9495;51.210;2.934;2024-01-30T05:18:14;13.30;99.90
18733;DHT22;9495;51.210;2.934;2024-01-30T05:20:42;13.60;99.90
18733;DHT22;9495;51.210;2.934;2024-01-30T05:23:11;13.60;99.90
18733;DHT22;9495;51.210;2.934;2024-01-30T05:25:39;13.70;99.90
18733;DHT22;9495;51.210;2.934;2024-01-30T05:28:09;13.60;99.90
18733;DHT22;9495;51.210;2.934;2024-01-30T05:30:38;13.30;99.90
18733;DHT22;9495;51.210;2.934;2024-01-30T05:33:06;13.20;99.90
18733;DHT22;9495;51.210;2.934;2024-01-30T05:35:35;13.20;99.90
18733;DHT22;9495;51.210;2.934;2024-01-30T05:38:03;13.40;99.90
18733;DHT22;9495;51.210;2.934;2024-01-30T05:40:32;13.30;99.90
18733;DHT22;9495;51.210;2.934;2024-01-30T05:43:01;13.50;99.90
18733;DHT22;9495;51.210;2.934;2024-01-30T05:45:31;13.50;99.90
18733;DHT22;9495;51.210;2.934;2024-01-30T05:48:00;13.70;99.90
18733;DHT22;9495;51.210;2.934;2024-01-30T05:50:28;13.60;99.90
18733;DHT22;9495;51.210;2.934;2024-01-30T05:52:57;13.30;99.90
18733;DHT22;9495;51.210;2.934;2024-01-30T05:55:26;13.40;99.90
18733;DHT22;9495;51.210;2.934;2024-01-30T05:57:54;13.60;99.90
18733;DHT22;9495;51.210;2.934;2024-01-30T06:00:23;13.40;99.90
18733;DHT22;9495;51.210;2.934;2024-01-30T06:02:53;13.60;99.90
18733;DHT22;9495;51.210;2.934;2024-01-30T06:05:21;13.70;99.90
18733;DHT22;9495;51.210;2.934;2024-01-30T06:07:50;13.60;99.90
18733;DHT22;9495;51.210;2.934;2024-01-30T06:10:18;13.70;99.90
18733;DHT22;9495;51.210;2.934;2024-01-30T06:12:47;13.80;99.90
18733;DHT22;9495;51.210;2.934;2024-01-30T06:15:16;13.80;99.90
18733;DHT22;9495;51.210;2.934;2024-01-30T06:17:45;13.80;99.90
18733;DHT22;9495;51.210;2.934;2024-01-30T06:20:15;13.80;99.90
18733;DHT22;9495;51.210;2.934;2024-01-30T06:22:44;13.80;99.90
18733;DHT22;9495;51.210;2.934;2024-01-30T06:25:12;13.90;99.90
18733;DHT22;9495;51.210;2.934;2024-01-30T06:27:41;13.90;99.90
18733;DHT22;9495;51.210;2.934;2024-01-30T06:30:10;14.00;99.90
18733;DHT22;9495;51.210;2.934;2024-01-30T06:32:39;13.80;99.90
18733;DHT22;9495;51.210;2.934;2024-01-30T06:35:08;13.90;99.90
18733;DHT22;9495;51.210;2.934;2024-01-30T06:37:38;13.80;99.90
18733;DHT22;9495;51.210;2.934;2024-01-30T06:40:07;13.90;99.90
18733;DHT22;9495;51.210;2.934;2024-01-30T06:42:36;13.80;99.90
18733;DHT22;9495;51.210;2.934;2024-01-30T06:45:05;13.80;99.90
18733;DHT22;9495;51.210;2.934;2024-01-30T06:47:35;13.80;99.90
18733;DHT22;9495;51.210;2.934;2024-01-30T06:50:04;13.70;99.90
18733;DHT22;9495;51.210;2.934;2024-01-30T06:52:32;13.80;99.90
18733;DHT22;9495;51.210;2.934;2024-01-30T06:55:02;13.90;99.90
18733;DHT22;9495;51.210;2.934;2024-01-30T06:57:31;13.60;99.90
18733;DHT22;9495;51.210;2.934;2024-01-30T06:59:59;13.70;99.90
18733;DHT22;9495;51.210;2.934;2024-01-30T07:02:28;13.80;99.90
18733;DHT22;9495;51.210;2.934;2024-01-30T07:04:57;13.60;99.90
18733;DHT22;9495;51.210;2.934;2024-01-30T07:07:25;13.70;99.90
18733;DHT22;9495;51.210;2.934;2024-01-30T07:09:54;13.70;99.90
18733;DHT22;9495;51.210;2.934;2024-01-30T07:12:25;13.50;99.90
18733;DHT22;9495;51.210;2.934;2024-01-30T07:14:54;13.50;99.90
18733;DHT22;9495;51.210;2.934;2024-01-30T07:17:23;13.60;99.90
18733;DHT22;9495;51.210;2.934;2024-01-30T07:19:52;13.50;99.90
18733;DHT22;9495;51.210;2.934;2024-01-30T07:22:21;13.10;99.90
18733;DHT22;9495;51.210;2.934;2024-01-30T07:24:49;13.20;99.90
18733;DHT22;9495;51.210;2.934;2024-01-30T07:27:19;13.30;99.90
18733;DHT22;9495;51.210;2.934;2024-01-30T07:29:50;13.70;99.90
18733;DHT22;9495;51.210;2.934;2024-01-30T07:32:18;13.60;99.90
18733;DHT22;9495;51.210;2.934;2024-01-30T07:34:47;13.60;99.90
18733;DHT22;9495;51.210;2.934;2024-01-30T07:37:33;13.70;99.90
18733;DHT22;9495;51.210;2.934;2024-01-30T07:40:02;13.50;99.90
18733;DHT22;9495;51.210;2.934;2024-01-30T07:42:32;13.70;99.90
18733;DHT22;9495;51.210;2.934;2024-01-30T07:45:02;13.70;99.90
18733;DHT22;9495;51.210;2.934;2024-01-30T07:47:30;13.80;99.90
18733;DHT22;9495;51.210;2.934;2024-01-30T07:50:00;13.90;99.90
18733;DHT22;9495;51.210;2.934;2024-01-30T07:52:29;14.00;99.90
18733;DHT22;9495;51.210;2.934;2024-01-30T07:54:57;14.00;99.90
18733;DHT22;9495;51.210;2.934;2024-01-30T07:57:26;13.80;99.90
18733;DHT22;9495;51.210;2.934;2024-01-30T07:59:54;14.00;99.90
18733;DHT22;9495;51.210;2.934;2024-01-30T08:02:26;13.90;99.90
18733;DHT22;9495;51.210;2.934;2024-01-30T08:04:54;14.00;99.90
18733;DHT22;9495;51.210;2.934;2024-01-30T08:07:23;14.00;99.90
18733;DHT22;9495;51.210;2.934;2024-01-30T08:09:51;14.00;99.90
18733;DHT22;9495;51.210;2.934;2024-01-30T08:12:20;13.90;99.90
18733;DHT22;9495;51.210;2.934;2024-01-30T08:14:49;13.90;99.90
18733;DHT22;9495;51.210;2.934;2024-01-30T08:17:17;13.80;99.90
18733;DHT22;9495;51.210;2.934;2024-01-30T08:19:47;13.80;99.90
18733;DHT22;9495;51.210;2.934;2024-01-30T08:22:16;13.60;99.90
18733;DHT22;9495;51.210;2.934;2024-01-30T08:24:45;13.70;99.90
18733;DHT22;9495;51.210;2.934;2024-01-30T08:27:14;13.70;99.90
18733;DHT22;9495;51.210;2.934;2024-01-30T08:29:42;13.80;99.90
18733;DHT22;9495;51.210;2.934;2024-01-30T08:32:11;13.50;99.90
18733;DHT22;9495;51.210;2.934;2024-01-30T08:34:40;13.80;99.90
18733;DHT22;9495;51.210;2.934;2024-01-30T08:37:10;13.90;99.90
18733;DHT22;9495;51.210;2.934;2024-01-30T08:39:39;13.80;99.90
18733;DHT22;9495;51.210;2.934;2024-01-30T08:42:07;13.90;99.90
18733;DHT22;9495;51.210;2.934;2024-01-30T08:44:36;14.10;99.90
18733;DHT22;9495;51.210;2.934;2024-01-30T08:47:05;14.10;99.90
18733;DHT22;9495;51.210;2.934;2024-01-30T08:49:34;13.80;99.90
18733;DHT22;9495;51.210;2.934;2024-01-30T08:52:03;13.90;99.90
18733;DHT22;9495;51.210;2.934;2024-01-30T08:54:33;13.80;99.90
18733;DHT22;9495;51.210;2.934;2024-01-30T08:57:02;13.80;99.90
18733;DHT22;9495;51.210;2.934;2024-01-30T08:59:31;14.00;99.90
18733;DHT22;9495;51.210;2.934;2024-01-30T09:02:01;14.10;99.90
18733;DHT22;9495;51.210;2.934;2024-01-30T09:04:38;13.90;99.90
18733;DHT22;9495;51.210;2.934;2024-01-30T09:07:09;13.90;99.90
18733;DHT22;9495;51.210;2.934;2024-01-30T09:09:39;13.50;99.90
18733;DHT22;9495;51.210;2.934;2024-01-30T09:12:08;13.60;99.90
18733;DHT22;9495;51.210;2.934;2024-01-30T09:14:39;13.70;99.90
18733;DHT22;9495;51.210;2.934;2024-01-30T09:17:09;13.80;99.90
18733;DHT22;9495;51.210;2.934;2024-01-30T09:19:38;13.40;99.90
18733;DHT22;9495;51.210;2.934;2024-01-30T09:22:06;13.40;99.90
18733;DHT22;9495;51.210;2.934;2024-01-30T09:24:35;13.50;99.90
18733;DHT22;9495;51.210;2.934;2024-01-30T09:27:05;13.10;99.90
18733;DHT22;9495;51.210;2.934;2024-01-30T09:29:33;13.10;99.90
18733;DHT22;9495;51.210;2.934;2024-01-30T09:32:05;13.40;99.90
18733;DHT22;9495;51.210;2.934;2024-01-30T09:34:34;13.70;99.90
18733;DHT22;9495;51.210;2.934;2024-01-30T09:37:03;13.40;99.90
18733;DHT22;9495;51.210;2.934;2024-01-30T09:39:32;13.70;99.90
18733;DHT22;9495;51.210;2.934;2024-01-30T09:42:08;13.80;99.90
18733;DHT22;9495;51.210;2.934;2024-01-30T09:44:43;13.70;99.90
18733;DHT22;9495;51.210;2.934;2024-01-30T09:47:12;13.80;99.90
18733;DHT22;9495;51.210;2.934;2024-01-30T09:49:42;13.50;99.90
18733;DHT22;9495;51.210;2.934;2024-01-30T09:52:11;13.00;99.90
18733;DHT22;9495;51.210;2.934;2024-01-30T09:54:42;12.80;99.90
18733;DHT22;9495;51.210;2.934;2024-01-30T09:57:13;12.60;99.90
18733;DHT22;9495;51.210;2.934;2024-01-30T09:59:42;12.40;99.90
18733;DHT22;9495;51.210;2.934;2024-01-30T10:02:11;12.70;99.90
18733;DHT22;9495;51.210;2.934;2024-01-30T10:04:40;11.90;99.90
18733;DHT22;9495;51.210;2.934;2024-01-30T10:07:10;11.70;99.90
18733;DHT22;9495;51.210;2.934;2024-01-30T10:09:39;11.40;99.90
18733;DHT22;9495;51.210;2.934;2024-01-30T10:12:09;12.00;99.90
18733;DHT22;9495;51.210;2.934;2024-01-30T10:14:39;12.00;99.90
18733;DHT22;9495;51.210;2.934;2024-01-30T10:17:09;12.50;99.90
18733;DHT22;9495;51.210;2.934;2024-01-30T10:19:50;12.40;99.90
18733;DHT22;9495;51.210;2.934;2024-01-30T10:22:20;12.00;99.90
18733;DHT22;9495;51.210;2.934;2024-01-30T10:24:49;12.60;99.90
18733;DHT22;9495;51.210;2.934;2024-01-30T10:27:25;12.30;99.90
18733;DHT22;9495;51.210;2.934;2024-01-30T10:29:54;11.80;99.90
18733;DHT22;9495;51.210;2.934;2024-01-30T10:32:24;12.10;99.90
18733;DHT22;9495;51.210;2.934;2024-01-30T10:34:54;12.00;99.90
18733;DHT22;9495;51.210;2.934;2024-01-30T10:37:25;12.10;99.90
18733;DHT22;9495;51.210;2.934;2024-01-30T10:39:54;11.40;99.90
18733;DHT22;9495;51.210;2.934;2024-01-30T10:42:26;11.70;99.90
18733;DHT22;9495;51.210;2.934;2024-01-30T10:45:05;12.00;99.90
18733;DHT22;9495;51.210;2.934;2024-01-30T10:47:36;12.30;99.90
18733;DHT22;9495;51.210;2.934;2024-01-30T10:50:06;11.90;99.90
18733;DHT22;9495;51.210;2.934;2024-01-30T10:52:36;11.60;99.90
18733;DHT22;9495;51.210;2.934;2024-01-30T10:55:05;11.80;99.90
18733;DHT22;9495;51.210;2.934;2024-01-30T10:57:35;11.00;99.90
18733;DHT22;9495;51.210;2.934;2024-01-30T11:00:07;11.20;99.90
18733;DHT22;9495;51.210;2.934;2024-01-30T11:02:40;11.20;99.90
18733;DHT22;9495;51.210;2.934;2024-01-30T11:05:09;11.20;99.90
18733;DHT22;9495;51.210;2.934;2024-01-30T11:07:39;11.10;99.90
18733;DHT22;9495;51.210;2.934;2024-01-30T11:10:08;11.50;99.90
18733;DHT22;9495;51.210;2.934;2024-01-30T11:12:41;11.20;99.90
18733;DHT22;9495;51.210;2.934;2024-01-30T11:15:14;10.80;99.90
18733;DHT22;9495;51.210;2.934;2024-01-30T11:17:43;11.40;99.90
18733;DHT22;9495;51.210;2.934;2024-01-30T11:20:14;11.50;99.90
18733;DHT22;9495;51.210;2.934;2024-01-30T11:22:44;11.80;99.90
18733;DHT22;9495;51.210;2.934;2024-01-30T11:25:14;11.50;99.90
18733;DHT22;9495;51.210;2.934;2024-01-30T11:27:43;11.60;99.90
18733;DHT22;9495;51.210;2.934;2024-01-30T11:30:21;11.50;99.90
18733;DHT22;9495;51.210;2.934;2024-01-30T11:33:03;11.60;99.90
18733;DHT22;9495;51.210;2.934;2024-01-30T11:35:34;12.10;99.90
18733;DHT22;9495;51.210;2.934;2024-01-30T11:38:06;12.30;99.90
18733;DHT22;9495;51.210;2.934;2024-01-30T11:40:36;11.90;99.90
18733;DHT22;9495;51.210;2.934;2024-01-30T11:43:06;12.10;99.90
18733;DHT22;9495;51.210;2.934;2024-01-30T11:45:36;12.00;99.90
18733;DHT22;9495;51.210;2.934;2024-01-30T11:48:07;11.80;99.90
18733;DHT22;9495;51.210;2.934;2024-01-30T11:50:38;11.90;99.90
18733;DHT22;9495;51.210;2.934;2024-01-30T11:53:07;12.10;99.90
18733;DHT22;9495;51.210;2.934;2024-01-30T11:55:36;12.20;99.90
18733;DHT22;9495;51.210;2.934;2024-01-30T11:58:05;12.00;99.90
18733;DHT22;9495;51.210;2.934;2024-01-30T12:00:34;12.30;99.90
18733;DHT22;9495;51.210;2.934;2024-01-30T12:03:04;11.90;99.90
18733;DHT22;9495;51.210;2.934;2024-01-30T12:05:34;12.00;99.90
18733;DHT22;9495;51.210;2.934;2024-01-30T12:08:04;12.10;99.90
18733;DHT22;9495;51.210;2.934;2024-01-30T12:10:33;12.10;99.90
18733;DHT22;9495;51.210;2.934;2024-01-30T12:13:02;12.00;99.90
18733;DHT22;9495;51.210;2.934;2024-01-30T12:15:30;12.10;99.90
18733;DHT22;9495;51.210;2.934;2024-01-30T12:18:07;12.30;99.90
18733;DHT22;9495;51.210;2.934;2024-01-30T12:20:36;12.10;99.90
18733;DHT22;9495;51.210;2.934;2024-01-30T12:23:05;11.80;99.90
18733;DHT22;9495;51.210;2.934;2024-01-30T12:25:33;11.50;99.90
18733;DHT22;9495;51.210;2.934;2024-01-30T12:28:02;11.80;99.90
18733;DHT22;9495;51.210;2.934;2024-01-30T12:30:31;11.70;99.90
18733;DHT22;9495;51.210;2.934;2024-01-30T12:33:00;11.50;99.90
18733;DHT22;9495;51.210;2.934;2024-01-30T12:35:34;11.70;99.90
18733;DHT22;9495;51.210;2.934;2024-01-30T12:38:08;11.70;99.90
18733;DHT22;9495;51.210;2.934;2024-01-30T12:40:36;11.60;99.90
18733;DHT22;9495;51.210;2.934;2024-01-30T12:43:08;11.70;99.90
18733;DHT22;9495;51.210;2.934;2024-01-30T12:45:36;11.40;99.90
18733;DHT22;9495;51.210;2.934;2024-01-30T12:48:05;11.50;99.90
18733;DHT22;9495;51.210;2.934;2024-01-30T12:50:35;11.70;99.90
18733;DHT22;9495;51.210;2.934;2024-01-30T12:53:04;11.50;99.90
18733;DHT22;9495;51.210;2.934;2024-01-30T12:55:33;12.10;99.90
18733;DHT22;9495;51.210;2.934;2024-01-30T12:58:01;11.10;99.90
18733;DHT22;9495;51.210;2.934;2024-01-30T13:00:30;10.70;99.90
18733;DHT22;9495;51.210;2.934;2024-01-30T13:02:59;10.60;99.90
18733;DHT22;9495;51.210;2.934;2024-01-30T13:05:27;10.80;99.90
18733;DHT22;9495;51.210;2.934;2024-01-30T13:07:57;10.70;99.90
18733;DHT22;9495;51.210;2.934;2024-01-30T13:10:26;10.90;99.90
18733;DHT22;9495;51.210;2.934;2024-01-30T13:12:54;10.20;99.90
18733;DHT22;9495;51.210;2.934;2024-01-30T13:15:23;10.40;99.90
18733;DHT22;9495;51.210;2.934;2024-01-30T13:17:51;10.50;99.90
18733;DHT22;9495;51.210;2.934;2024-01-30T13:20:21;11.10;99.90
18733;DHT22;9495;51.210;2.934;2024-01-30T13:22:50;11.20;99.90
18733;DHT22;9495;51.210;2.934;2024-01-30T13:25:20;11.00;99.90
18733;DHT22;9495;51.210;2.934;2024-01-30T13:27:48;11.00;99.90
18733;DHT22;9495;51.210;2.934;2024-01-30T13:30:17;11.20;99.90
18733;DHT22;9495;51.210;2.934;2024-01-30T13:32:45;11.20;99.90
18733;DHT22;9495;51.210;2.934;2024-01-30T13:35:14;11.20;99.90
18733;DHT22;9495;51.210;2.934;2024-01-30T13:37:42;11.20;99.90
18733;DHT22;9495;51.210;2.934;2024-01-30T13:40:11;11.00;99.90
18733;DHT22;9495;51.210;2.934;2024-01-30T13:42:43;10.90;99.90
18733;DHT22;9495;51.210;2.934;2024-01-30T13:45:12;11.10;99.90
18733;DHT22;9495;51.210;2.934;2024-01-30T13:47:40;10.80;99.90
18733;DHT22;9495;51.210;2.934;2024-01-30T13:50:09;10.90;99.90
18733;DHT22;9495;51.210;2.934;2024-01-30T13:52:42;11.10;99.90
18733;DHT22;9495;51.210;2.934;2024-01-30T13:55:12;10.90;99.90
18733;DHT22;9495;51.210;2.934;2024-01-30T13:57:42;11.30;99.90
18733;DHT22;9495;51.210;2.934;2024-01-30T14:00:13;11.30;99.90
18733;DHT22;9495;51.210;2.934;2024-01-30T14:02:43;11.40;99.90
18733;DHT22;9495;51.210;2.934;2024-01-30T14:05:12;11.10;99.90
18733;DHT22;9495;51.210;2.934;2024-01-30T14:07:43;10.90;99.90
18733;DHT22;9495;51.210;2.934;2024-01-30T14:10:12;11.00;99.90
18733;DHT22;9495;51.210;2.934;2024-01-30T14:12:43;11.00;99.90
18733;DHT22;9495;51.210;2.934;2024-01-30T14:15:12;10.90;99.90
18733;DHT22;9495;51.210;2.934;2024-01-30T14:17:54;10.80;99.90
18733;DHT22;9495;51.210;2.934;2024-01-30T14:20:23;10.70;99.90
18733;DHT22;9495;51.210;2.934;2024-01-30T14:22:52;10.80;99.90
18733;DHT22;9495;51.210;2.934;2024-01-30T14:25:23;11.00;99.90
18733;DHT22;9495;51.210;2.934;2024-01-30T14:27:53;11.00;99.90
18733;DHT22;9495;51.210;2.934;2024-01-30T14:30:22;11.00;99.90
18733;DHT22;9495;51.210;2.934;2024-01-30T14:32:50;11.00;99.90
18733;DHT22;9495;51.210;2.934;2024-01-30T14:35:20;11.00;99.90
18733;DHT22;9495;51.210;2.934;2024-01-30T14:37:49;10.80;99.90
18733;DHT22;9495;51.210;2.934;2024-01-30T14:40:18;11.10;99.90
18733;DHT22;9495;51.210;2.934;2024-01-30T14:42:47;10.70;99.90
18733;DHT22;9495;51.210;2.934;2024-01-30T14:45:17;10.60;99.90
18733;DHT22;9495;51.210;2.934;2024-01-30T14:47:46;10.40;99.90
18733;DHT22;9495;51.210;2.934;2024-01-30T14:50:14;10.40;99.90
18733;DHT22;9495;51.210;2.934;2024-01-30T14:52:44;10.40;99.90
18733;DHT22;9495;51.210;2.934;2024-01-30T14:55:13;10.60;99.90
18733;DHT22;9495;51.210;2.934;2024-01-30T14:57:41;10.60;99.90
18733;DHT22;9495;51.210;2.934;2024-01-30T15:00:13;10.80;99.90
18733;DHT22;9495;51.210;2.934;2024-01-30T15:02:44;10.70;99.90
18733;DHT22;9495;51.210;2.934;2024-01-30T15:05:14;11.00;99.90
18733;DHT22;9495;51.210;2.934;2024-01-30T15:07:43;10.90;99.90
18733;DHT22;9495;51.210;2.934;2024-01-30T15:10:12;10.80;99.90
18733;DHT22;9495;51.210;2.934;2024-01-30T15:12:41;10.90;99.90
18733;DHT22;9495;51.210;2.934;2024-01-30T15:15:10;11.00;99.90
18733;DHT22;9495;51.210;2.934;2024-01-30T15:17:38;10.80;99.90
18733;DHT22;9495;51.210;2.934;2024-01-30T15:20:09;10.90;99.90
18733;DHT22;9495;51.210;2.934;2024-01-30T15:22:38;10.60;99.90
18733;DHT22;9495;51.210;2.934;2024-01-30T15:25:08;10.70;99.90
18733;DHT22;9495;51.210;2.934;2024-01-30T15:27:36;10.40;99.90
18733;DHT22;9495;51.210;2.934;2024-01-30T15:30:06;10.60;99.90
18733;DHT22;9495;51.210;2.934;2024-01-30T15:32:35;10.50;99.90
18733;DHT22;9495;51.210;2.934;2024-01-30T15:35:04;10.50;99.90
18733;DHT22;9495;51.210;2.934;2024-01-30T15:37:34;10.20;99.90
18733;DHT22;9495;51.210;2.934;2024-01-30T15:40:03;10.20;99.90
18733;DHT22;9495;51.210;2.934;2024-01-30T15:42:34;10.40;99.90
18733;DHT22;9495;51.210;2.934;2024-01-30T15:45:03;10.50;99.90
18733;DHT22;9495;51.210;2.934;2024-01-30T15:47:32;10.40;99.90
18733;DHT22;9495;51.210;2.934;2024-01-30T15:50:01;10.20;99.90
18733;DHT22;9495;51.210;2.934;2024-01-30T15:52:31;10.40;99.90
18733;DHT22;9495;51.210;2.934;2024-01-30T15:55:01;10.20;99.90
18733;DHT22;9495;51.210;2.934;2024-01-30T15:57:30;10.10;99.90
18733;DHT22;9495;51.210;2.934;2024-01-30T15:59:59;10.20;99.90